Flight Number: EUR1168 Duration: 1:00
Departure: London City Airport (EGLC) at 21:15 Distance: 205 Nm
Arrival: Paris Charles-de-Gaulle (LFPG) at 22:15 Equipment: CRJ700

Weather Information
London City Airport, United Kingdom (EGLC) 51-30N 000-30W Aug 17, 2018 - 04:50 PM EDT / 2018.08.17 2050 UTC
Wind: from the W (270 degrees) at 16 MPH (14 KT):0
Visibility: greater than 7 mile(s):0 Temperature: 66 F (19 C) Dew Point: 51 F (11 C) Relative Humidity: 59% Pressure (altimeter): 30.12 in. Hg (1020 hPa)
ob: EGLC 172050Z AUTO 27014KT 9999 NCD 19/11 Q1020 cycle: 21
Sunrise: 04:53 Sunset: 19:14 (UTC)

Paris-Aeroport Charles De Gaulle, France (LFPG) 49-01N 002-32E 109M Aug 17, 2018 - 05:00 PM EDT / 2018.08.17 2100 UTC
Wind: from the N (350 degrees) at 9 MPH (8 KT):0
Visibility: greater than 7 mile(s):0 Temperature: 62 F (17 C) Dew Point: 51 F (11 C) Relative Humidity: 67% Pressure (altimeter): 30.21 in. Hg (1023 hPa)
ob: LFPG 172100Z 35008KT CAVOK 17/11 Q1023 NOSIG cycle: 21
Sunrise: 04:49 Sunset: 18:58 (UTC)

TAF:2018/08/17 18:24 TAF LFPG 171700Z 1718/1824 34008KT CAVOK TX25/1815Z TN12/1805Z= TAF LFPO 171700Z 1718/1824 32007KT CAVOK

Previous Pireps for this route
Date Aircraft Flight time Fuel used Landing rate On time
2013-01-27CRJ70000.543706-221Yes
2013-08-09B73700.588696-506Charter
2013-08-11CRJ70000.5515086-404No
2013-10-24CRJ7001.0065530No
2013-10-25B1900D1.2070000No
2014-04-17CRJ7001.0054860No
2015-05-06CRJ7000.5520200Yes
2015-07-05CRJ7000.552080-163Yes
2015-07-07CRJ7000.562009-201Yes
2015-07-08CRJ7000.582485-179Yes
2015-08-18CRJ7000.542091-83Yes
(pireps marked green are flown by you)

Route map